createdAt,value
2023-04-12T00:04:58.992Z,6.30
2023-04-12T00:10:01.371Z,6.27
2023-04-12T00:15:03.897Z,6.26
2023-04-12T00:20:12.248Z,6.16
2023-04-12T00:25:14.379Z,6.12
2023-04-12T00:30:17.273Z,6.12
2023-04-12T00:35:19.388Z,6.02
2023-04-12T00:40:21.444Z,6.09
2023-04-12T00:45:23.653Z,5.99
2023-04-12T00:50:25.757Z,5.92
2023-04-12T00:55:28.093Z,5.79
2023-04-12T01:00:30.173Z,5.78
2023-04-12T01:05:40.666Z,5.78
2023-04-12T01:11:05.333Z,5.79
2023-04-12T01:16:46.250Z,5.76
2023-04-12T01:22:11.606Z,5.73
2023-04-12T01:27:45.062Z,5.65
2023-04-12T01:32:51.380Z,5.61
2023-04-12T01:37:54.222Z,5.48
2023-04-12T01:43:13.801Z,5.50
2023-04-12T01:48:16.154Z,5.49
2023-04-12T01:53:32.888Z,5.49
2023-04-12T01:58:36.204Z,5.40
2023-04-12T02:03:42.608Z,5.27
2023-04-12T02:08:44.881Z,5.34
2023-04-12T02:13:47.027Z,5.29
2023-04-12T02:18:52.097Z,5.19
2023-04-12T02:23:54.237Z,5.27
2023-04-12T02:28:56.707Z,5.14
2023-04-12T02:33:58.809Z,5.21
2023-04-12T02:39:00.945Z,5.08
2023-04-12T02:44:03.581Z,5.11
2023-04-12T02:49:05.747Z,4.96
2023-04-12T02:54:07.832Z,4.95
2023-04-12T02:59:09.899Z,4.92
2023-04-12T03:04:12.382Z,4.93
2023-04-12T03:09:16.362Z,4.88
2023-04-12T03:14:18.640Z,4.85
2023-04-12T03:19:20.764Z,4.81
2023-04-12T03:24:22.846Z,4.66
2023-04-12T03:29:24.929Z,4.70
2023-04-12T03:34:32.288Z,4.68
2023-04-12T03:39:34.567Z,4.58
2023-04-12T03:44:36.677Z,4.63
2023-04-12T03:49:38.932Z,4.62
2023-04-12T03:54:41.321Z,4.54
2023-04-12T03:59:43.363Z,4.54
2023-04-12T04:04:46.021Z,4.49
2023-04-12T04:09:48.342Z,4.50
2023-04-12T04:14:50.374Z,4.46
2023-04-12T04:19:52.714Z,4.39
2023-04-12T04:24:55.862Z,4.52
2023-04-12T04:29:59.603Z,4.57
2023-04-12T04:35:01.754Z,4.58
2023-04-12T04:40:11.693Z,4.64
2023-04-12T04:45:14.685Z,4.69
2023-04-12T04:50:16.936Z,4.80
2023-04-12T04:55:19.268Z,4.99
2023-04-12T05:00:21.619Z,5.04
2023-04-12T05:05:23.964Z,5.17
2023-04-12T05:10:26.567Z,5.33
2023-04-12T05:15:30.822Z,5.38
2023-04-12T05:20:32.932Z,5.59
2023-04-12T05:25:35.735Z,5.75
2023-04-12T05:30:40.066Z,5.83
2023-04-12T05:35:42.258Z,5.88
2023-04-12T05:40:44.446Z,6.04
2023-04-12T05:45:46.597Z,6.16
2023-04-12T05:50:52.919Z,6.17
2023-04-12T05:55:55.382Z,6.38
2023-04-12T06:00:57.705Z,6.48
2023-04-12T06:05:59.886Z,6.54
2023-04-12T06:11:02.121Z,6.59
2023-04-12T06:16:04.515Z,6.59
2023-04-12T06:21:06.918Z,6.54
2023-04-12T06:26:09.606Z,6.65
2023-04-12T06:31:11.823Z,6.77
2023-04-12T06:36:16.160Z,7.05
2023-04-12T06:41:18.282Z,7.14
2023-04-12T06:46:28.056Z,7.43
2023-04-12T06:51:30.956Z,7.58
2023-04-12T06:56:33.141Z,7.59
2023-04-12T07:01:35.660Z,7.83
2023-04-12T07:06:37.739Z,7.95
2023-04-12T07:11:39.908Z,8.00
2023-04-12T07:16:43.463Z,8.05
2023-04-12T07:21:45.657Z,8.14
2023-04-12T07:26:47.762Z,8.41
2023-04-12T07:31:49.890Z,8.53
2023-04-12T07:36:51.984Z,8.52
2023-04-12T07:41:54.080Z,8.74
2023-04-12T07:46:56.150Z,8.91
2023-04-12T07:51:58.447Z,9.03
2023-04-12T07:57:02.679Z,9.27
2023-04-12T08:02:06.297Z,9.47
2023-04-12T08:07:08.516Z,9.56
2023-04-12T08:12:11.526Z,9.74
2023-04-12T08:17:13.607Z,9.97
2023-04-12T08:22:15.664Z,10.10
2023-04-12T08:27:18.279Z,10.19
2023-04-12T08:32:20.454Z,10.51
2023-04-12T08:37:22.583Z,10.71
2023-04-12T08:42:24.706Z,11.01
2023-04-12T08:47:27.300Z,11.20
2023-04-12T08:52:33.923Z,11.36
2023-04-12T08:57:39.734Z,11.65
2023-04-12T09:02:46.413Z,12.07
2023-04-12T09:07:48.703Z,11.97
2023-04-12T09:12:52.785Z,12.53
2023-04-12T09:18:11.987Z,12.89
2023-04-12T09:23:26.304Z,13.11
2023-04-12T09:28:30.466Z,13.63
2023-04-12T09:33:37.737Z,13.83
2023-04-12T09:38:41.792Z,14.32
2023-04-12T09:43:43.874Z,14.35
2023-04-12T09:48:51.048Z,14.65
2023-04-12T09:53:53.701Z,15.05
2023-04-12T09:59:00.269Z,15.47
2023-04-12T10:04:04.972Z,15.65
2023-04-12T10:09:08.948Z,15.83
2023-04-12T10:14:11.955Z,16.05
2023-04-12T10:19:15.174Z,16.68
2023-04-12T10:24:17.600Z,16.91
2023-04-12T10:29:27.062Z,16.70
2023-04-12T10:34:30.773Z,16.88
2023-04-12T10:39:41.615Z,17.01
2023-04-12T10:44:43.682Z,17.46
2023-04-12T10:50:27.463Z,17.56
2023-04-12T10:55:30.503Z,17.36
2023-04-12T11:00:58.397Z,17.83
2023-04-12T11:06:20.214Z,17.81
2023-04-12T11:11:27.534Z,17.52
2023-04-12T11:16:29.694Z,17.75
2023-04-12T11:21:31.966Z,17.30
2023-04-12T11:26:35.858Z,17.90
2023-04-12T11:31:41.139Z,17.76
2023-04-12T11:36:45.179Z,17.78
2023-04-12T11:41:49.041Z,17.97
2023-04-12T11:46:51.512Z,18.30
2023-04-12T11:52:04.757Z,18.46
2023-04-12T11:57:06.893Z,18.58
2023-04-12T12:02:21.973Z,18.64
2023-04-12T12:07:26.089Z,18.48
2023-04-12T12:12:28.216Z,18.45
2023-04-12T12:17:30.340Z,18.64
2023-04-12T12:22:32.553Z,19.23
2023-04-12T12:27:37.856Z,19.07
2023-04-12T12:32:40.224Z,18.45
2023-04-12T12:37:53.268Z,19.39
2023-04-12T12:42:56.282Z,19.80
2023-04-12T12:48:04.013Z,20.05
2023-04-12T12:53:06.569Z,19.81
2023-04-12T12:58:08.864Z,19.73
2023-04-12T13:03:11.170Z,19.87
2023-04-12T13:08:13.576Z,20.28
2023-04-12T13:13:15.655Z,20.66
2023-04-12T13:18:17.751Z,20.75
2023-04-12T13:23:19.861Z,20.86
2023-04-12T13:28:21.952Z,21.42
2023-04-12T13:33:24.162Z,21.25
2023-04-12T13:38:26.663Z,21.74
2023-04-12T13:43:28.830Z,21.37
2023-04-12T13:48:30.918Z,21.72
2023-04-12T13:53:33.045Z,22.13
2023-04-12T13:58:35.155Z,22.39
2023-04-12T14:03:37.237Z,22.26
2023-04-12T14:08:39.411Z,21.34
2023-04-12T14:13:41.567Z,21.89
2023-04-12T14:18:43.694Z,22.21
2023-04-12T14:23:45.818Z,22.71
2023-04-12T14:28:50.025Z,22.12
2023-04-12T14:33:53.518Z,22.80
2023-04-12T14:38:56.085Z,22.75
2023-04-12T14:44:02.142Z,23.24
2023-04-12T14:49:04.275Z,23.10
2023-04-12T14:54:06.360Z,23.13
2023-04-12T14:59:08.932Z,23.07
2023-04-12T15:04:11.384Z,22.53
2023-04-12T15:09:14.229Z,22.22
2023-04-12T15:14:17.975Z,20.96
2023-04-12T15:19:23.258Z,20.73
2023-04-12T15:24:25.853Z,20.39
2023-04-12T15:29:28.139Z,20.15
2023-04-12T15:34:33.990Z,19.55
2023-04-12T15:39:36.506Z,19.55
2023-04-12T15:44:38.538Z,19.06
2023-04-12T15:49:40.978Z,18.84
2023-04-12T15:54:43.911Z,18.51
2023-04-12T15:59:46.323Z,17.93
2023-04-12T16:04:48.634Z,17.48
2023-04-12T16:09:50.903Z,17.08
2023-04-12T16:14:52.965Z,16.73
2023-04-12T16:19:55.296Z,16.55
2023-04-12T16:24:58.101Z,16.41
2023-04-12T16:30:02.948Z,16.31
2023-04-12T16:35:06.900Z,16.08
2023-04-12T16:40:16.978Z,15.75
2023-04-12T16:45:19.803Z,15.46
2023-04-12T16:50:24.174Z,15.18
2023-04-12T16:55:27.154Z,15.04
2023-04-12T17:00:29.496Z,14.83
2023-04-12T17:05:32.481Z,14.59
2023-04-12T17:10:34.622Z,14.27
2023-04-12T17:15:36.741Z,14.16
2023-04-12T17:20:39.044Z,13.94
2023-04-12T17:25:41.823Z,13.70
2023-04-12T17:30:43.987Z,13.62
2023-04-12T17:35:46.557Z,13.52
2023-04-12T17:40:48.617Z,13.39
2023-04-12T17:45:50.812Z,13.26
2023-04-12T17:50:52.925Z,13.11
2023-04-12T17:55:55.011Z,12.99
2023-04-12T18:00:57.937Z,12.84
2023-04-12T18:06:00.986Z,12.66
2023-04-12T18:11:06.217Z,12.47
2023-04-12T18:16:08.320Z,12.47
2023-04-12T18:21:10.590Z,12.44
2023-04-12T18:26:12.952Z,12.26
2023-04-12T18:31:15.159Z,12.18
2023-04-12T18:36:17.404Z,12.02
2023-04-12T18:41:19.484Z,11.89
2023-04-12T18:46:21.617Z,11.78
2023-04-12T18:51:24.296Z,11.77
2023-04-12T18:56:26.687Z,11.57
2023-04-12T19:01:28.952Z,11.44
2023-04-12T19:06:31.273Z,11.37
2023-04-12T19:11:35.727Z,11.40
2023-04-12T19:16:39.131Z,11.27
2023-04-12T19:21:41.183Z,11.17
2023-04-12T19:26:47.091Z,11.10
2023-04-12T19:31:51.029Z,11.00
2023-04-12T19:36:53.568Z,10.93
2023-04-12T19:41:56.384Z,10.75
2023-04-12T19:46:59.632Z,10.77
2023-04-12T19:52:05.394Z,10.68
2023-04-12T19:57:08.122Z,10.59
2023-04-12T20:02:10.867Z,10.47
2023-04-12T20:07:12.935Z,10.40
2023-04-12T20:12:16.645Z,10.30
2023-04-12T20:17:18.707Z,10.17
2023-04-12T20:22:23.898Z,10.12
2023-04-12T20:27:27.109Z,9.99
2023-04-12T20:32:29.297Z,10.04
2023-04-12T20:37:31.733Z,9.95
2023-04-12T20:42:33.778Z,9.73
2023-04-12T20:47:37.973Z,9.56
2023-04-12T20:52:40.087Z,9.43
2023-04-12T20:57:42.251Z,9.32
2023-04-12T21:02:46.030Z,9.16
2023-04-12T21:07:48.263Z,9.22
2023-04-12T21:12:51.722Z,9.19
2023-04-12T21:17:54.122Z,9.13
2023-04-12T21:22:56.350Z,9.04
2023-04-12T21:27:58.423Z,8.80
2023-04-12T21:33:02.264Z,8.74
2023-04-12T21:38:04.337Z,8.68
2023-04-12T21:43:06.782Z,8.72
2023-04-12T21:48:09.062Z,8.74
2023-04-12T21:53:11.119Z,8.74
2023-04-12T21:58:13.237Z,8.62
2023-04-12T22:03:16.047Z,8.57
2023-04-12T22:08:20.359Z,8.52
2023-04-12T22:13:25.078Z,8.55
2023-04-12T22:18:27.360Z,8.30
2023-04-12T22:23:29.842Z,8.41
2023-04-12T22:28:31.936Z,8.36
2023-04-12T22:33:36.913Z,8.41
2023-04-12T22:38:39.115Z,8.31
2023-04-12T22:43:47.575Z,8.35
2023-04-12T22:48:49.955Z,8.36
2023-04-12T22:53:52.075Z,8.37
2023-04-12T22:58:55.684Z,8.35
2023-04-12T23:04:00.595Z,8.32
2023-04-12T23:09:05.573Z,8.39
2023-04-12T23:14:08.741Z,8.44
2023-04-12T23:19:12.104Z,8.49
2023-04-12T23:24:17.554Z,8.54
2023-04-12T23:29:19.756Z,8.52
2023-04-12T23:34:21.990Z,8.53
2023-04-12T23:39:24.039Z,8.66
2023-04-12T23:44:27.969Z,8.60
2023-04-12T23:49:30.016Z,8.59
2023-04-12T23:54:32.024Z,8.50
2023-04-12T23:59:34.089Z,8.65
